sensor_id;sensor_type;location;lat;lon;timestamp;P1;durP1;ratioP1;P2;durP2;ratioP2
25349;SDS011;13302;48.796;11.978;2023-08-07T00:02:41;0.60;;;0.60;;
25349;SDS011;13302;48.796;11.978;2023-08-07T00:05:29;0.63;;;0.63;;
25349;SDS011;13302;48.796;11.978;2023-08-07T00:08:16;1.00;;;0.70;;
25349;SDS011;13302;48.796;11.978;2023-08-07T00:11:04;0.63;;;0.63;;
25349;SDS011;13302;48.796;11.978;2023-08-07T00:13:52;0.60;;;0.60;;
25349;SDS011;13302;48.796;11.978;2023-08-07T00:16:41;0.50;;;0.50;;
25349;SDS011;13302;48.796;11.978;2023-08-07T00:19:28;0.60;;;0.60;;
25349;SDS011;13302;48.796;11.978;2023-08-07T00:22:15;1.30;;;0.70;;
25349;SDS011;13302;48.796;11.978;2023-08-07T00:25:03;2.10;;;0.80;;
25349;SDS011;13302;48.796;11.978;2023-08-07T00:27:50;0.80;;;0.80;;
25349;SDS011;13302;48.796;11.978;2023-08-07T00:30:37;0.70;;;0.70;;
25349;SDS011;13302;48.796;11.978;2023-08-07T00:33:24;1.50;;;0.70;;
25349;SDS011;13302;48.796;11.978;2023-08-07T00:36:11;0.80;;;0.80;;
25349;SDS011;13302;48.796;11.978;2023-08-07T00:38:58;0.80;;;0.80;;
25349;SDS011;13302;48.796;11.978;2023-08-07T00:41:45;0.60;;;0.60;;
25349;SDS011;13302;48.796;11.978;2023-08-07T00:44:32;0.70;;;0.70;;
25349;SDS011;13302;48.796;11.978;2023-08-07T00:47:19;0.57;;;0.57;;
25349;SDS011;13302;48.796;11.978;2023-08-07T00:50:06;0.60;;;0.60;;
25349;SDS011;13302;48.796;11.978;2023-08-07T00:52:54;0.67;;;0.60;;
25349;SDS011;13302;48.796;11.978;2023-08-07T00:55:42;0.60;;;0.60;;
25349;SDS011;13302;48.796;11.978;2023-08-07T00:58:29;0.47;;;0.43;;
25349;SDS011;13302;48.796;11.978;2023-08-07T01:01:17;0.63;;;0.63;;
25349;SDS011;13302;48.796;11.978;2023-08-07T01:04:05;0.57;;;0.57;;
25349;SDS011;13302;48.796;11.978;2023-08-07T01:06:52;0.50;;;0.50;;
25349;SDS011;13302;48.796;11.978;2023-08-07T01:09:39;1.10;;;0.57;;
25349;SDS011;13302;48.796;11.978;2023-08-07T01:12:29;0.50;;;0.50;;
25349;SDS011;13302;48.796;11.978;2023-08-07T01:15:22;0.40;;;0.40;;
25349;SDS011;13302;48.796;11.978;2023-08-07T01:18:17;1.90;;;0.50;;
25349;SDS011;13302;48.796;11.978;2023-08-07T01:21:05;0.50;;;0.50;;
25349;SDS011;13302;48.796;11.978;2023-08-07T01:23:52;0.40;;;0.40;;
25349;SDS011;13302;48.796;11.978;2023-08-07T01:26:39;0.83;;;0.50;;
25349;SDS011;13302;48.796;11.978;2023-08-07T01:29:32;0.40;;;0.40;;
25349;SDS011;13302;48.796;11.978;2023-08-07T01:35:33;0.60;;;0.60;;
25349;SDS011;13302;48.796;11.978;2023-08-07T01:38:24;0.53;;;0.53;;
25349;SDS011;13302;48.796;11.978;2023-08-07T01:41:14;0.50;;;0.50;;
25349;SDS011;13302;48.796;11.978;2023-08-07T01:44:01;0.50;;;0.50;;
25349;SDS011;13302;48.796;11.978;2023-08-07T01:46:49;0.57;;;0.57;;
25349;SDS011;13302;48.796;11.978;2023-08-07T01:49:36;1.10;;;0.73;;
25349;SDS011;13302;48.796;11.978;2023-08-07T01:52:25;0.57;;;0.57;;
25349;SDS011;13302;48.796;11.978;2023-08-07T01:55:14;1.13;;;0.67;;
25349;SDS011;13302;48.796;11.978;2023-08-07T01:58:09;0.60;;;0.60;;
25349;SDS011;13302;48.796;11.978;2023-08-07T02:00:56;0.60;;;0.60;;
25349;SDS011;13302;48.796;11.978;2023-08-07T02:03:43;0.63;;;0.60;;
25349;SDS011;13302;48.796;11.978;2023-08-07T02:06:30;0.50;;;0.50;;
25349;SDS011;13302;48.796;11.978;2023-08-07T02:09:17;0.77;;;0.67;;
25349;SDS011;13302;48.796;11.978;2023-08-07T02:12:04;0.77;;;0.73;;
25349;SDS011;13302;48.796;11.978;2023-08-07T02:14:52;0.53;;;0.53;;
25349;SDS011;13302;48.796;11.978;2023-08-07T02:17:39;0.60;;;0.60;;
25349;SDS011;13302;48.796;11.978;2023-08-07T02:20:28;0.70;;;0.70;;
25349;SDS011;13302;48.796;11.978;2023-08-07T02:23:15;0.47;;;0.40;;
25349;SDS011;13302;48.796;11.978;2023-08-07T02:26:02;0.60;;;0.60;;
25349;SDS011;13302;48.796;11.978;2023-08-07T02:28:49;0.43;;;0.43;;
25349;SDS011;13302;48.796;11.978;2023-08-07T02:31:36;0.50;;;0.50;;
25349;SDS011;13302;48.796;11.978;2023-08-07T02:34:23;0.50;;;0.50;;
25349;SDS011;13302;48.796;11.978;2023-08-07T02:37:10;0.50;;;0.50;;
25349;SDS011;13302;48.796;11.978;2023-08-07T02:39:57;0.60;;;0.60;;
25349;SDS011;13302;48.796;11.978;2023-08-07T02:42:44;0.70;;;0.70;;
25349;SDS011;13302;48.796;11.978;2023-08-07T02:45:31;0.50;;;0.50;;
25349;SDS011;13302;48.796;11.978;2023-08-07T02:48:21;0.50;;;0.50;;
25349;SDS011;13302;48.796;11.978;2023-08-07T02:51:08;0.80;;;0.80;;
25349;SDS011;13302;48.796;11.978;2023-08-07T02:53:55;0.60;;;0.60;;
25349;SDS011;13302;48.796;11.978;2023-08-07T02:56:42;0.67;;;0.67;;
25349;SDS011;13302;48.796;11.978;2023-08-07T02:59:29;0.50;;;0.50;;
25349;SDS011;13302;48.796;11.978;2023-08-07T03:02:16;0.60;;;0.60;;
25349;SDS011;13302;48.796;11.978;2023-08-07T03:05:03;1.43;;;0.77;;
25349;SDS011;13302;48.796;11.978;2023-08-07T03:07:50;0.77;;;0.63;;
25349;SDS011;13302;48.796;11.978;2023-08-07T03:10:37;1.13;;;0.70;;
25349;SDS011;13302;48.796;11.978;2023-08-07T03:13:25;0.80;;;0.80;;
25349;SDS011;13302;48.796;11.978;2023-08-07T03:16:12;0.47;;;0.47;;
25349;SDS011;13302;48.796;11.978;2023-08-07T03:18:59;0.70;;;0.60;;
25349;SDS011;13302;48.796;11.978;2023-08-07T03:21:47;0.60;;;0.60;;
25349;SDS011;13302;48.796;11.978;2023-08-07T03:24:34;0.90;;;0.70;;
25349;SDS011;13302;48.796;11.978;2023-08-07T03:27:21;0.90;;;0.67;;
25349;SDS011;13302;48.796;11.978;2023-08-07T03:30:09;1.10;;;0.70;;
25349;SDS011;13302;48.796;11.978;2023-08-07T03:32:56;0.70;;;0.70;;
25349;SDS011;13302;48.796;11.978;2023-08-07T03:35:44;1.00;;;0.70;;
25349;SDS011;13302;48.796;11.978;2023-08-07T03:38:32;0.93;;;0.80;;
25349;SDS011;13302;48.796;11.978;2023-08-07T03:41:19;0.90;;;0.90;;
25349;SDS011;13302;48.796;11.978;2023-08-07T03:44:07;0.80;;;0.80;;
25349;SDS011;13302;48.796;11.978;2023-08-07T03:46:54;1.20;;;0.60;;
25349;SDS011;13302;48.796;11.978;2023-08-07T03:49:44;0.80;;;0.80;;
25349;SDS011;13302;48.796;11.978;2023-08-07T03:52:31;1.67;;;0.80;;
25349;SDS011;13302;48.796;11.978;2023-08-07T03:55:19;0.60;;;0.60;;
25349;SDS011;13302;48.796;11.978;2023-08-07T03:58:06;1.00;;;0.87;;
25349;SDS011;13302;48.796;11.978;2023-08-07T04:00:53;1.13;;;0.77;;
25349;SDS011;13302;48.796;11.978;2023-08-07T04:03:40;0.97;;;0.90;;
25349;SDS011;13302;48.796;11.978;2023-08-07T04:06:27;0.70;;;0.70;;
25349;SDS011;13302;48.796;11.978;2023-08-07T04:09:15;0.80;;;0.80;;
25349;SDS011;13302;48.796;11.978;2023-08-07T04:12:03;0.70;;;0.70;;
25349;SDS011;13302;48.796;11.978;2023-08-07T04:14:51;0.60;;;0.60;;
25349;SDS011;13302;48.796;11.978;2023-08-07T04:17:38;1.57;;;0.80;;
25349;SDS011;13302;48.796;11.978;2023-08-07T04:20:25;0.80;;;0.67;;
25349;SDS011;13302;48.796;11.978;2023-08-07T04:23:13;0.60;;;0.60;;
25349;SDS011;13302;48.796;11.978;2023-08-07T04:26:00;1.50;;;0.93;;
25349;SDS011;13302;48.796;11.978;2023-08-07T04:28:47;0.63;;;0.63;;
25349;SDS011;13302;48.796;11.978;2023-08-07T04:31:34;0.87;;;0.77;;
25349;SDS011;13302;48.796;11.978;2023-08-07T04:34:21;0.63;;;0.63;;
25349;SDS011;13302;48.796;11.978;2023-08-07T04:37:08;0.73;;;0.73;;
25349;SDS011;13302;48.796;11.978;2023-08-07T04:39:55;0.83;;;0.80;;
25349;SDS011;13302;48.796;11.978;2023-08-07T04:42:43;1.37;;;0.73;;
25349;SDS011;13302;48.796;11.978;2023-08-07T04:45:30;0.90;;;0.90;;
25349;SDS011;13302;48.796;11.978;2023-08-07T04:48:17;0.63;;;0.63;;
25349;SDS011;13302;48.796;11.978;2023-08-07T04:51:05;0.70;;;0.70;;
25349;SDS011;13302;48.796;11.978;2023-08-07T04:53:52;0.90;;;0.90;;
25349;SDS011;13302;48.796;11.978;2023-08-07T04:56:39;0.87;;;0.80;;
25349;SDS011;13302;48.796;11.978;2023-08-07T04:59:27;0.80;;;0.80;;
25349;SDS011;13302;48.796;11.978;2023-08-07T05:02:16;0.90;;;0.90;;
25349;SDS011;13302;48.796;11.978;2023-08-07T05:05:03;0.80;;;0.80;;
25349;SDS011;13302;48.796;11.978;2023-08-07T05:07:51;0.97;;;0.90;;
25349;SDS011;13302;48.796;11.978;2023-08-07T05:10:38;1.07;;;0.90;;
25349;SDS011;13302;48.796;11.978;2023-08-07T05:13:25;0.80;;;0.80;;
25349;SDS011;13302;48.796;11.978;2023-08-07T05:16:12;1.00;;;1.00;;
25349;SDS011;13302;48.796;11.978;2023-08-07T05:18:59;1.00;;;0.90;;
25349;SDS011;13302;48.796;11.978;2023-08-07T05:21:46;1.13;;;0.90;;
25349;SDS011;13302;48.796;11.978;2023-08-07T05:24:36;0.80;;;0.80;;
25349;SDS011;13302;48.796;11.978;2023-08-07T05:27:27;1.93;;;1.30;;
25349;SDS011;13302;48.796;11.978;2023-08-07T05:30:14;0.83;;;0.83;;
25349;SDS011;13302;48.796;11.978;2023-08-07T05:33:02;0.90;;;0.90;;
25349;SDS011;13302;48.796;11.978;2023-08-07T05:35:50;1.10;;;1.00;;
25349;SDS011;13302;48.796;11.978;2023-08-07T05:38:39;2.20;;;1.40;;
25349;SDS011;13302;48.796;11.978;2023-08-07T05:41:26;1.13;;;1.13;;
25349;SDS011;13302;48.796;11.978;2023-08-07T05:44:13;0.93;;;0.93;;
25349;SDS011;13302;48.796;11.978;2023-08-07T05:47:00;1.03;;;1.00;;
25349;SDS011;13302;48.796;11.978;2023-08-07T05:49:48;0.80;;;0.80;;
25349;SDS011;13302;48.796;11.978;2023-08-07T05:52:35;1.33;;;1.20;;
25349;SDS011;13302;48.796;11.978;2023-08-07T05:55:23;1.10;;;1.00;;
25349;SDS011;13302;48.796;11.978;2023-08-07T05:58:10;0.80;;;0.80;;
25349;SDS011;13302;48.796;11.978;2023-08-07T06:00:57;0.90;;;0.90;;
25349;SDS011;13302;48.796;11.978;2023-08-07T06:03:45;1.20;;;1.07;;
25349;SDS011;13302;48.796;11.978;2023-08-07T06:06:33;1.00;;;1.00;;
25349;SDS011;13302;48.796;11.978;2023-08-07T06:09:22;1.07;;;1.00;;
25349;SDS011;13302;48.796;11.978;2023-08-07T06:12:09;1.70;;;1.00;;
25349;SDS011;13302;48.796;11.978;2023-08-07T06:14:56;0.80;;;0.80;;
25349;SDS011;13302;48.796;11.978;2023-08-07T06:17:43;0.97;;;0.97;;
25349;SDS011;13302;48.796;11.978;2023-08-07T06:20:30;2.60;;;2.40;;
25349;SDS011;13302;48.796;11.978;2023-08-07T06:23:17;1.80;;;1.70;;
25349;SDS011;13302;48.796;11.978;2023-08-07T06:26:04;1.57;;;1.47;;
25349;SDS011;13302;48.796;11.978;2023-08-07T06:28:51;1.30;;;1.30;;
25349;SDS011;13302;48.796;11.978;2023-08-07T06:31:39;1.67;;;1.40;;
25349;SDS011;13302;48.796;11.978;2023-08-07T06:34:26;3.47;;;3.20;;
25349;SDS011;13302;48.796;11.978;2023-08-07T06:37:13;2.27;;;2.07;;
25349;SDS011;13302;48.796;11.978;2023-08-07T06:40:00;3.67;;;2.33;;
25349;SDS011;13302;48.796;11.978;2023-08-07T06:42:49;2.60;;;1.67;;
25349;SDS011;13302;48.796;11.978;2023-08-07T06:45:36;2.27;;;1.50;;
25349;SDS011;13302;48.796;11.978;2023-08-07T06:48:23;2.40;;;2.27;;
25349;SDS011;13302;48.796;11.978;2023-08-07T06:51:10;1.57;;;1.47;;
25349;SDS011;13302;48.796;11.978;2023-08-07T06:53:57;2.50;;;2.40;;
25349;SDS011;13302;48.796;11.978;2023-08-07T06:56:44;2.03;;;1.83;;
25349;SDS011;13302;48.796;11.978;2023-08-07T06:59:32;1.97;;;1.27;;
25349;SDS011;13302;48.796;11.978;2023-08-07T07:02:19;1.30;;;1.30;;
25349;SDS011;13302;48.796;11.978;2023-08-07T07:05:06;2.03;;;1.70;;
25349;SDS011;13302;48.796;11.978;2023-08-07T07:07:54;1.67;;;1.40;;
25349;SDS011;13302;48.796;11.978;2023-08-07T07:10:41;1.60;;;1.23;;
25349;SDS011;13302;48.796;11.978;2023-08-07T07:13:28;3.07;;;1.87;;
25349;SDS011;13302;48.796;11.978;2023-08-07T07:16:19;1.37;;;1.33;;
25349;SDS011;13302;48.796;11.978;2023-08-07T07:19:08;1.53;;;1.43;;
25349;SDS011;13302;48.796;11.978;2023-08-07T07:21:56;1.40;;;1.23;;
25349;SDS011;13302;48.796;11.978;2023-08-07T07:24:43;1.90;;;1.70;;
25349;SDS011;13302;48.796;11.978;2023-08-07T07:27:30;1.57;;;1.30;;
25349;SDS011;13302;48.796;11.978;2023-08-07T07:30:17;1.73;;;1.40;;
25349;SDS011;13302;48.796;11.978;2023-08-07T07:33:04;1.50;;;1.33;;
25349;SDS011;13302;48.796;11.978;2023-08-07T07:35:51;1.37;;;1.27;;
25349;SDS011;13302;48.796;11.978;2023-08-07T07:38:38;1.00;;;1.00;;
25349;SDS011;13302;48.796;11.978;2023-08-07T07:41:25;1.53;;;1.30;;
25349;SDS011;13302;48.796;11.978;2023-08-07T07:44:13;1.83;;;1.37;;
25349;SDS011;13302;48.796;11.978;2023-08-07T07:47:00;1.10;;;1.00;;
25349;SDS011;13302;48.796;11.978;2023-08-07T07:49:47;1.40;;;1.30;;
25349;SDS011;13302;48.796;11.978;2023-08-07T07:52:34;1.57;;;1.47;;
25349;SDS011;13302;48.796;11.978;2023-08-07T07:55:22;1.43;;;1.33;;
25349;SDS011;13302;48.796;11.978;2023-08-07T07:58:09;1.20;;;1.10;;
25349;SDS011;13302;48.796;11.978;2023-08-07T08:00:56;1.40;;;1.00;;
25349;SDS011;13302;48.796;11.978;2023-08-07T08:03:43;1.57;;;0.87;;
25349;SDS011;13302;48.796;11.978;2023-08-07T08:06:30;1.20;;;1.20;;
25349;SDS011;13302;48.796;11.978;2023-08-07T08:09:17;1.40;;;1.37;;
25349;SDS011;13302;48.796;11.978;2023-08-07T08:12:04;1.13;;;1.10;;
25349;SDS011;13302;48.796;11.978;2023-08-07T08:14:51;1.60;;;1.30;;
25349;SDS011;13302;48.796;11.978;2023-08-07T08:17:42;2.07;;;1.10;;
25349;SDS011;13302;48.796;11.978;2023-08-07T08:20:29;1.30;;;1.10;;
25349;SDS011;13302;48.796;11.978;2023-08-07T08:23:17;1.33;;;1.23;;
25349;SDS011;13302;48.796;11.978;2023-08-07T08:26:04;1.00;;;1.00;;
25349;SDS011;13302;48.796;11.978;2023-08-07T08:28:51;1.10;;;1.07;;
25349;SDS011;13302;48.796;11.978;2023-08-07T08:31:38;1.43;;;1.20;;
25349;SDS011;13302;48.796;11.978;2023-08-07T08:34:26;1.90;;;1.07;;
25349;SDS011;13302;48.796;11.978;2023-08-07T08:37:13;1.20;;;1.20;;
25349;SDS011;13302;48.796;11.978;2023-08-07T08:40:00;1.40;;;1.30;;
25349;SDS011;13302;48.796;11.978;2023-08-07T08:42:48;2.20;;;1.20;;
25349;SDS011;13302;48.796;11.978;2023-08-07T08:45:36;2.20;;;1.07;;
25349;SDS011;13302;48.796;11.978;2023-08-07T08:48:24;1.40;;;1.20;;
25349;SDS011;13302;48.796;11.978;2023-08-07T08:51:12;1.50;;;1.40;;
25349;SDS011;13302;48.796;11.978;2023-08-07T08:53:59;1.40;;;1.30;;
25349;SDS011;13302;48.796;11.978;2023-08-07T08:56:49;3.50;;;1.43;;
25349;SDS011;13302;48.796;11.978;2023-08-07T08:59:37;1.30;;;1.20;;
25349;SDS011;13302;48.796;11.978;2023-08-07T09:02:24;1.27;;;1.20;;
25349;SDS011;13302;48.796;11.978;2023-08-07T09:05:11;1.40;;;1.30;;
25349;SDS011;13302;48.796;11.978;2023-08-07T09:07:59;2.03;;;1.40;;
25349;SDS011;13302;48.796;11.978;2023-08-07T09:10:48;1.30;;;1.20;;
25349;SDS011;13302;48.796;11.978;2023-08-07T09:13:38;1.47;;;0.97;;
25349;SDS011;13302;48.796;11.978;2023-08-07T09:16:27;2.20;;;1.30;;
25349;SDS011;13302;48.796;11.978;2023-08-07T09:19:15;1.23;;;1.20;;
25349;SDS011;13302;48.796;11.978;2023-08-07T09:22:02;1.53;;;1.43;;
25349;SDS011;13302;48.796;11.978;2023-08-07T09:24:49;1.47;;;1.20;;
25349;SDS011;13302;48.796;11.978;2023-08-07T09:27:37;1.50;;;1.40;;
25349;SDS011;13302;48.796;11.978;2023-08-07T09:30:28;2.27;;;1.50;;
25349;SDS011;13302;48.796;11.978;2023-08-07T09:33:16;1.10;;;1.10;;
25349;SDS011;13302;48.796;11.978;2023-08-07T09:36:11;1.47;;;1.33;;
25349;SDS011;13302;48.796;11.978;2023-08-07T09:39:01;1.40;;;1.30;;
25349;SDS011;13302;48.796;11.978;2023-08-07T09:41:50;2.03;;;1.20;;
25349;SDS011;13302;48.796;11.978;2023-08-07T09:44:38;1.30;;;1.20;;
25349;SDS011;13302;48.796;11.978;2023-08-07T09:47:25;1.17;;;1.10;;
25349;SDS011;13302;48.796;11.978;2023-08-07T09:50:17;2.53;;;1.50;;
25349;SDS011;13302;48.796;11.978;2023-08-07T09:53:04;2.53;;;1.40;;
25349;SDS011;13302;48.796;11.978;2023-08-07T09:55:54;1.23;;;1.13;;
25349;SDS011;13302;48.796;11.978;2023-08-07T09:58:43;1.40;;;1.30;;
25349;SDS011;13302;48.796;11.978;2023-08-07T10:01:37;2.90;;;1.60;;
25349;SDS011;13302;48.796;11.978;2023-08-07T10:04:26;1.50;;;1.40;;
25349;SDS011;13302;48.796;11.978;2023-08-07T10:07:13;1.70;;;1.60;;
25349;SDS011;13302;48.796;11.978;2023-08-07T10:10:02;1.47;;;1.37;;
25349;SDS011;13302;48.796;11.978;2023-08-07T10:12:50;1.00;;;1.00;;
25349;SDS011;13302;48.796;11.978;2023-08-07T10:15:38;1.53;;;1.43;;
25349;SDS011;13302;48.796;11.978;2023-08-07T10:18:27;1.20;;;1.10;;
25349;SDS011;13302;48.796;11.978;2023-08-07T10:21:14;1.63;;;1.33;;
25349;SDS011;13302;48.796;11.978;2023-08-07T10:24:03;2.00;;;1.40;;
25349;SDS011;13302;48.796;11.978;2023-08-07T10:26:52;1.20;;;1.10;;
25349;SDS011;13302;48.796;11.978;2023-08-07T10:29:41;1.40;;;1.30;;
25349;SDS011;13302;48.796;11.978;2023-08-07T10:32:29;1.57;;;1.00;;
25349;SDS011;13302;48.796;11.978;2023-08-07T10:35:23;1.57;;;1.40;;
25349;SDS011;13302;48.796;11.978;2023-08-07T10:38:18;0.90;;;0.90;;
25349;SDS011;13302;48.796;11.978;2023-08-07T10:41:07;2.53;;;1.23;;
25349;SDS011;13302;48.796;11.978;2023-08-07T10:43:55;1.13;;;1.07;;
25349;SDS011;13302;48.796;11.978;2023-08-07T10:46:46;1.17;;;1.10;;
25349;SDS011;13302;48.796;11.978;2023-08-07T10:49:36;1.40;;;1.23;;
25349;SDS011;13302;48.796;11.978;2023-08-07T10:52:24;1.60;;;1.50;;
25349;SDS011;13302;48.796;11.978;2023-08-07T10:55:13;1.20;;;1.20;;
25349;SDS011;13302;48.796;11.978;2023-08-07T10:58:01;1.00;;;1.00;;
25349;SDS011;13302;48.796;11.978;2023-08-07T11:00:48;4.00;;;1.33;;
25349;SDS011;13302;48.796;11.978;2023-08-07T11:03:35;1.40;;;1.30;;
25349;SDS011;13302;48.796;11.978;2023-08-07T11:06:27;1.20;;;1.10;;
25349;SDS011;13302;48.796;11.978;2023-08-07T11:09:18;1.43;;;1.40;;
25349;SDS011;13302;48.796;11.978;2023-08-07T11:12:05;1.30;;;1.20;;
25349;SDS011;13302;48.796;11.978;2023-08-07T11:14:52;2.10;;;1.30;;
25349;SDS011;13302;48.796;11.978;2023-08-07T11:17:43;1.13;;;1.13;;
25349;SDS011;13302;48.796;11.978;2023-08-07T11:20:34;1.40;;;1.30;;
25349;SDS011;13302;48.796;11.978;2023-08-07T11:23:25;2.87;;;1.50;;
25349;SDS011;13302;48.796;11.978;2023-08-07T11:26:12;1.60;;;1.50;;
25349;SDS011;13302;48.796;11.978;2023-08-07T11:28:59;2.00;;;1.47;;
25349;SDS011;13302;48.796;11.978;2023-08-07T11:31:46;2.23;;;1.60;;
25349;SDS011;13302;48.796;11.978;2023-08-07T11:34:33;1.20;;;1.20;;
25349;SDS011;13302;48.796;11.978;2023-08-07T11:37:22;1.33;;;1.20;;
25349;SDS011;13302;48.796;11.978;2023-08-07T11:40:09;1.40;;;1.10;;
25349;SDS011;13302;48.796;11.978;2023-08-07T11:42:56;1.53;;;1.43;;
25349;SDS011;13302;48.796;11.978;2023-08-07T11:45:44;1.43;;;1.30;;
25349;SDS011;13302;48.796;11.978;2023-08-07T11:48:31;1.37;;;1.30;;
25349;SDS011;13302;48.796;11.978;2023-08-07T11:51:19;1.27;;;1.20;;
25349;SDS011;13302;48.796;11.978;2023-08-07T11:54:06;1.30;;;1.20;;
25349;SDS011;13302;48.796;11.978;2023-08-07T11:56:54;0.90;;;0.90;;
25349;SDS011;13302;48.796;11.978;2023-08-07T11:59:41;0.90;;;0.90;;
25349;SDS011;13302;48.796;11.978;2023-08-07T12:02:28;1.13;;;1.10;;
25349;SDS011;13302;48.796;11.978;2023-08-07T12:05:15;1.40;;;1.30;;
25349;SDS011;13302;48.796;11.978;2023-08-07T12:08:02;2.17;;;1.37;;
25349;SDS011;13302;48.796;11.978;2023-08-07T12:10:53;1.17;;;1.17;;
25349;SDS011;13302;48.796;11.978;2023-08-07T12:13:41;1.20;;;0.87;;
25349;SDS011;13302;48.796;11.978;2023-08-07T12:16:34;1.50;;;1.40;;
25349;SDS011;13302;48.796;11.978;2023-08-07T12:19:22;1.10;;;1.10;;
25349;SDS011;13302;48.796;11.978;2023-08-07T12:22:10;1.20;;;1.10;;
25349;SDS011;13302;48.796;11.978;2023-08-07T12:24:57;1.50;;;0.90;;
25349;SDS011;13302;48.796;11.978;2023-08-07T12:27:44;1.03;;;0.97;;
25349;SDS011;13302;48.796;11.978;2023-08-07T12:30:34;1.23;;;1.23;;
25349;SDS011;13302;48.796;11.978;2023-08-07T12:33:21;1.37;;;1.27;;
25349;SDS011;13302;48.796;11.978;2023-08-07T12:36:09;0.93;;;0.93;;
25349;SDS011;13302;48.796;11.978;2023-08-07T12:39:00;1.87;;;1.00;;
25349;SDS011;13302;48.796;11.978;2023-08-07T12:41:47;2.40;;;1.10;;
25349;SDS011;13302;48.796;11.978;2023-08-07T12:44:56;1.00;;;1.00;;
25349;SDS011;13302;48.796;11.978;2023-08-07T12:47:43;0.83;;;0.83;;
25349;SDS011;13302;48.796;11.978;2023-08-07T12:50:30;1.20;;;1.03;;
25349;SDS011;13302;48.796;11.978;2023-08-07T12:53:17;1.57;;;1.10;;
25349;SDS011;13302;48.796;11.978;2023-08-07T12:56:04;1.10;;;1.10;;
25349;SDS011;13302;48.796;11.978;2023-08-07T12:58:52;2.10;;;1.10;;
25349;SDS011;13302;48.796;11.978;2023-08-07T13:01:39;0.97;;;0.97;;
25349;SDS011;13302;48.796;11.978;2023-08-07T13:04:26;1.10;;;1.10;;
25349;SDS011;13302;48.796;11.978;2023-08-07T13:07:13;1.30;;;1.30;;
25349;SDS011;13302;48.796;11.978;2023-08-07T13:10:00;1.13;;;1.13;;
25349;SDS011;13302;48.796;11.978;2023-08-07T13:12:48;0.97;;;0.90;;
25349;SDS011;13302;48.796;11.978;2023-08-07T13:15:36;1.13;;;1.03;;
25349;SDS011;13302;48.796;11.978;2023-08-07T13:18:23;1.10;;;0.97;;
25349;SDS011;13302;48.796;11.978;2023-08-07T13:21:11;1.37;;;1.30;;
25349;SDS011;13302;48.796;11.978;2023-08-07T13:23:58;1.07;;;1.07;;
25349;SDS011;13302;48.796;11.978;2023-08-07T13:26:45;1.00;;;1.00;;
25349;SDS011;13302;48.796;11.978;2023-08-07T13:29:32;1.20;;;1.10;;
25349;SDS011;13302;48.796;11.978;2023-08-07T13:32:19;1.27;;;1.10;;
25349;SDS011;13302;48.796;11.978;2023-08-07T13:35:07;1.20;;;1.03;;
25349;SDS011;13302;48.796;11.978;2023-08-07T13:37:55;1.13;;;1.13;;
25349;SDS011;13302;48.796;11.978;2023-08-07T13:40:42;0.87;;;0.87;;
25349;SDS011;13302;48.796;11.978;2023-08-07T13:43:31;1.07;;;0.90;;
25349;SDS011;13302;48.796;11.978;2023-08-07T13:46:18;0.87;;;0.87;;
25349;SDS011;13302;48.796;11.978;2023-08-07T13:49:08;0.83;;;0.83;;
25349;SDS011;13302;48.796;11.978;2023-08-07T13:51:56;1.03;;;1.03;;
25349;SDS011;13302;48.796;11.978;2023-08-07T13:54:43;2.47;;;1.13;;
25349;SDS011;13302;48.796;11.978;2023-08-07T13:57:30;0.87;;;0.87;;
25349;SDS011;13302;48.796;11.978;2023-08-07T14:00:17;1.37;;;1.00;;
25349;SDS011;13302;48.796;11.978;2023-08-07T14:03:04;1.13;;;0.93;;
25349;SDS011;13302;48.796;11.978;2023-08-07T14:05:51;1.03;;;0.97;;
25349;SDS011;13302;48.796;11.978;2023-08-07T14:08:38;1.20;;;1.10;;
25349;SDS011;13302;48.796;11.978;2023-08-07T14:11:25;1.23;;;1.13;;
25349;SDS011;13302;48.796;11.978;2023-08-07T14:14:17;2.73;;;1.40;;
25349;SDS011;13302;48.796;11.978;2023-08-07T14:17:04;1.17;;;1.10;;
25349;SDS011;13302;48.796;11.978;2023-08-07T14:19:51;0.90;;;0.90;;
25349;SDS011;13302;48.796;11.978;2023-08-07T14:22:38;0.80;;;0.80;;
25349;SDS011;13302;48.796;11.978;2023-08-07T14:25:27;1.10;;;1.00;;
25349;SDS011;13302;48.796;11.978;2023-08-07T14:28:14;1.10;;;1.10;;
25349;SDS011;13302;48.796;11.978;2023-08-07T14:31:05;3.07;;;1.10;;
25349;SDS011;13302;48.796;11.978;2023-08-07T14:33:53;1.00;;;1.00;;
25349;SDS011;13302;48.796;11.978;2023-08-07T14:36:41;1.50;;;1.50;;
25349;SDS011;13302;48.796;11.978;2023-08-07T14:39:28;1.10;;;1.10;;
25349;SDS011;13302;48.796;11.978;2023-08-07T14:42:15;1.33;;;1.20;;
25349;SDS011;13302;48.796;11.978;2023-08-07T14:45:02;1.17;;;0.97;;
25349;SDS011;13302;48.796;11.978;2023-08-07T14:47:50;1.57;;;1.17;;
25349;SDS011;13302;48.796;11.978;2023-08-07T14:50:37;0.80;;;0.80;;
25349;SDS011;13302;48.796;11.978;2023-08-07T14:53:25;1.10;;;1.00;;
25349;SDS011;13302;48.796;11.978;2023-08-07T14:56:12;1.10;;;1.00;;
25349;SDS011;13302;48.796;11.978;2023-08-07T14:58:59;0.87;;;0.87;;
25349;SDS011;13302;48.796;11.978;2023-08-07T15:01:46;1.53;;;1.07;;
25349;SDS011;13302;48.796;11.978;2023-08-07T15:04:33;1.60;;;0.87;;
25349;SDS011;13302;48.796;11.978;2023-08-07T15:07:20;1.40;;;1.30;;
25349;SDS011;13302;48.796;11.978;2023-08-07T15:10:08;0.90;;;0.90;;
25349;SDS011;13302;48.796;11.978;2023-08-07T15:12:55;1.60;;;0.90;;
25349;SDS011;13302;48.796;11.978;2023-08-07T15:15:42;1.70;;;0.90;;
25349;SDS011;13302;48.796;11.978;2023-08-07T15:18:31;0.70;;;0.70;;
25349;SDS011;13302;48.796;11.978;2023-08-07T15:21:18;1.60;;;0.93;;
25349;SDS011;13302;48.796;11.978;2023-08-07T15:24:05;0.90;;;0.90;;
25349;SDS011;13302;48.796;11.978;2023-08-07T15:26:52;1.17;;;1.07;;
25349;SDS011;13302;48.796;11.978;2023-08-07T15:29:39;0.90;;;0.90;;
25349;SDS011;13302;48.796;11.978;2023-08-07T15:32:28;0.77;;;0.73;;
25349;SDS011;13302;48.796;11.978;2023-08-07T15:35:15;1.00;;;0.50;;
25349;SDS011;13302;48.796;11.978;2023-08-07T15:38:02;1.47;;;0.57;;
25349;SDS011;13302;48.796;11.978;2023-08-07T15:40:50;0.67;;;0.47;;
25349;SDS011;13302;48.796;11.978;2023-08-07T15:43:37;0.60;;;0.60;;
25349;SDS011;13302;48.796;11.978;2023-08-07T15:46:24;0.73;;;0.50;;
25349;SDS011;13302;48.796;11.978;2023-08-07T15:49:11;1.80;;;0.90;;
25349;SDS011;13302;48.796;11.978;2023-08-07T15:51:58;0.63;;;0.63;;
25349;SDS011;13302;48.796;11.978;2023-08-07T15:54:45;5.50;;;4.90;;
25349;SDS011;13302;48.796;11.978;2023-08-07T15:57:32;6.90;;;6.30;;
25349;SDS011;13302;48.796;11.978;2023-08-07T16:00:20;3.60;;;3.33;;
25349;SDS011;13302;48.796;11.978;2023-08-07T16:03:08;15.73;;;14.10;;
25349;SDS011;13302;48.796;11.978;2023-08-07T16:05:56;12.17;;;11.03;;
25349;SDS011;13302;48.796;11.978;2023-08-07T16:08:43;5.00;;;4.70;;
25349;SDS011;13302;48.796;11.978;2023-08-07T16:11:30;1.63;;;1.60;;
25349;SDS011;13302;48.796;11.978;2023-08-07T16:14:18;1.30;;;1.30;;
25349;SDS011;13302;48.796;11.978;2023-08-07T16:17:05;1.20;;;1.20;;
25349;SDS011;13302;48.796;11.978;2023-08-07T16:19:52;0.90;;;0.90;;
25349;SDS011;13302;48.796;11.978;2023-08-07T16:22:39;1.03;;;1.03;;
25349;SDS011;13302;48.796;11.978;2023-08-07T16:25:26;0.90;;;0.90;;
25349;SDS011;13302;48.796;11.978;2023-08-07T16:28:13;1.07;;;1.07;;
25349;SDS011;13302;48.796;11.978;2023-08-07T16:31:01;0.80;;;0.80;;
25349;SDS011;13302;48.796;11.978;2023-08-07T16:33:48;0.83;;;0.83;;
25349;SDS011;13302;48.796;11.978;2023-08-07T16:36:35;1.33;;;0.80;;
25349;SDS011;13302;48.796;11.978;2023-08-07T16:39:23;0.93;;;0.93;;